createdAt,value
2023-04-25T00:01:52.296Z,2.53
2023-04-25T00:04:20.543Z,3.03
2023-04-25T00:06:48.566Z,2.73
2023-04-25T00:09:16.637Z,2.60
2023-04-25T00:11:44.794Z,2.77
2023-04-25T00:14:12.759Z,2.60
2023-04-25T00:16:42.149Z,2.90
2023-04-25T00:19:11.788Z,2.80
2023-04-25T00:21:41.588Z,2.47
2023-04-25T00:24:09.787Z,2.53
2023-04-25T00:26:37.873Z,2.30
2023-04-25T00:29:06.291Z,2.70
2023-04-25T00:31:34.255Z,2.90
2023-04-25T00:34:02.324Z,3.10
2023-04-25T00:36:31.633Z,2.77
2023-04-25T00:38:59.548Z,2.80
2023-04-25T00:41:28.243Z,2.80
2023-04-25T00:43:57.862Z,3.40
2023-04-25T00:46:25.841Z,2.73
2023-04-25T00:48:53.798Z,3.13
2023-04-25T00:51:23.599Z,3.07
2023-04-25T00:53:53.576Z,3.23
2023-04-25T00:56:22.833Z,3.00
2023-04-25T00:58:52.200Z,2.97
2023-04-25T01:01:21.211Z,2.80
2023-04-25T01:03:51.308Z,2.93
2023-04-25T01:06:20.023Z,3.00
2023-04-25T01:08:48.056Z,3.10
2023-04-25T01:11:17.275Z,2.83
2023-04-25T01:13:45.412Z,3.30
2023-04-25T01:16:13.372Z,2.97
2023-04-25T01:18:42.504Z,3.17
2023-04-25T01:21:12.659Z,2.83
2023-04-25T01:23:41.807Z,3.37
2023-04-25T01:26:11.742Z,2.97
2023-04-25T01:28:42.293Z,3.20
2023-04-25T01:31:11.037Z,3.87
2023-04-25T01:33:39.639Z,2.87
2023-04-25T01:36:08.204Z,3.10
2023-04-25T01:38:37.681Z,3.63
2023-04-25T01:41:05.761Z,3.30
2023-04-25T01:43:33.836Z,3.37
2023-04-25T01:46:02.083Z,3.03
2023-04-25T01:48:30.072Z,3.00
2023-04-25T01:50:58.051Z,3.20
2023-04-25T01:53:27.067Z,3.33
2023-04-25T01:55:56.459Z,3.33
2023-04-25T01:58:25.396Z,3.60
2023-04-25T02:00:53.680Z,3.50
2023-04-25T02:03:21.767Z,2.97
2023-04-25T02:05:49.792Z,3.37
2023-04-25T02:08:19.668Z,3.50
2023-04-25T02:10:47.698Z,3.43
2023-04-25T02:13:17.085Z,3.27
2023-04-25T02:15:45.124Z,3.57
2023-04-25T02:18:13.082Z,3.23
2023-04-25T02:20:40.962Z,3.70
2023-04-25T02:23:08.893Z,4.00
2023-04-25T02:25:36.858Z,2.80
2023-04-25T02:28:05.008Z,3.10
2023-04-25T02:30:34.349Z,3.17
2023-04-25T02:33:02.271Z,3.20
2023-04-25T02:35:30.290Z,2.87
2023-04-25T02:37:58.250Z,3.30
2023-04-25T02:40:26.213Z,2.90
2023-04-25T02:42:54.070Z,3.33
2023-04-25T02:45:22.159Z,2.90
2023-04-25T02:47:51.356Z,2.67
2023-04-25T02:50:20.692Z,2.87
2023-04-25T02:52:48.598Z,2.70
2023-04-25T02:55:16.747Z,2.30
2023-04-25T02:57:44.629Z,2.83
2023-04-25T03:00:15.230Z,3.20
2023-04-25T03:02:43.250Z,2.60
2023-04-25T03:05:12.657Z,2.60
2023-04-25T03:07:41.329Z,2.77
2023-04-25T03:10:09.888Z,2.20
2023-04-25T03:12:37.937Z,2.57
2023-04-25T03:15:06.853Z,2.77
2023-04-25T03:17:34.813Z,2.30
2023-04-25T03:20:05.108Z,3.13
2023-04-25T03:22:34.473Z,2.93
2023-04-25T03:25:02.360Z,3.07
2023-04-25T03:27:30.291Z,3.10
2023-04-25T03:29:58.114Z,2.40
2023-04-25T03:32:26.735Z,3.00
2023-04-25T03:34:54.714Z,2.87
2023-04-25T03:37:23.018Z,3.17
2023-04-25T03:39:52.902Z,2.70
2023-04-25T03:42:20.839Z,3.23
2023-04-25T03:44:49.004Z,2.87
2023-04-25T03:47:17.030Z,2.67
2023-04-25T03:49:45.566Z,3.00
2023-04-25T03:52:13.548Z,2.90
2023-04-25T03:54:41.421Z,2.87
2023-04-25T03:57:11.363Z,3.13
2023-04-25T03:59:39.360Z,2.90
2023-04-25T04:02:07.305Z,3.23
2023-04-25T04:04:35.542Z,3.07
2023-04-25T04:07:03.680Z,2.50
2023-04-25T04:09:31.564Z,3.23
2023-04-25T04:11:59.475Z,2.90
2023-04-25T04:14:30.877Z,3.20
2023-04-25T04:16:58.845Z,2.77
2023-04-25T04:19:26.681Z,3.43
2023-04-25T04:21:54.544Z,3.20
2023-04-25T04:24:22.581Z,3.03
2023-04-25T04:26:51.689Z,2.87
2023-04-25T04:29:21.930Z,3.33
2023-04-25T04:31:53.708Z,2.80
2023-04-25T04:34:21.790Z,3.47
2023-04-25T04:36:50.130Z,2.83
2023-04-25T04:39:18.053Z,3.07
2023-04-25T04:41:46.335Z,3.37
2023-04-25T04:44:15.752Z,3.10
2023-04-25T04:46:43.859Z,3.03
2023-04-25T04:49:14.691Z,3.60
2023-04-25T04:51:45.532Z,3.40
2023-04-25T04:54:13.578Z,3.07
2023-04-25T04:56:42.738Z,2.90
2023-04-25T04:59:10.703Z,4.20
2023-04-25T05:01:38.710Z,3.40
2023-04-25T05:04:07.647Z,3.17
2023-04-25T05:06:37.310Z,3.13
2023-04-25T05:09:05.438Z,3.17
2023-04-25T05:11:33.361Z,3.67
2023-04-25T05:14:01.322Z,4.13
2023-04-25T05:16:29.298Z,3.40
2023-04-25T05:18:57.373Z,3.30
2023-04-25T05:21:25.405Z,3.17
2023-04-25T05:23:56.830Z,3.17
2023-04-25T05:26:24.982Z,3.37
2023-04-25T05:28:52.917Z,3.10
2023-04-25T05:31:20.815Z,3.27
2023-04-25T05:33:48.912Z,3.73
2023-04-25T05:36:17.045Z,3.93
2023-04-25T05:38:46.872Z,3.40
2023-04-25T05:41:16.283Z,3.13
2023-04-25T05:43:48.084Z,3.60
2023-04-25T05:46:16.492Z,3.03
2023-04-25T05:48:44.522Z,4.03
2023-04-25T05:51:12.316Z,3.57
2023-04-25T05:53:40.189Z,3.30
2023-04-25T05:56:08.454Z,3.07
2023-04-25T05:58:37.698Z,3.67
2023-04-25T06:01:05.768Z,4.63
2023-04-25T06:03:33.892Z,3.37
2023-04-25T06:06:02.498Z,3.23
2023-04-25T06:08:30.488Z,3.33
2023-04-25T06:10:58.508Z,3.33
2023-04-25T06:13:26.500Z,3.43
2023-04-25T06:15:55.773Z,3.10
2023-04-25T06:18:23.656Z,3.27
2023-04-25T06:20:51.489Z,3.30
2023-04-25T06:23:19.412Z,3.50
2023-04-25T06:25:47.296Z,3.60
2023-04-25T06:28:15.331Z,3.43
2023-04-25T06:30:43.163Z,3.37
2023-04-25T06:33:12.403Z,3.67
2023-04-25T06:35:40.511Z,3.50
2023-04-25T06:38:08.438Z,3.93
2023-04-25T06:40:36.276Z,3.00
2023-04-25T06:43:04.144Z,3.13
2023-04-25T06:45:31.982Z,3.40
2023-04-25T06:47:59.937Z,3.37
2023-04-25T06:50:29.246Z,3.13
2023-04-25T06:52:58.528Z,3.07
2023-04-25T06:55:26.394Z,3.13
2023-04-25T06:57:54.212Z,3.90
2023-04-25T07:00:22.959Z,3.63
2023-04-25T07:02:51.178Z,3.63
2023-04-25T07:05:19.434Z,3.40
2023-04-25T07:07:48.760Z,3.83
2023-04-25T07:10:16.772Z,2.87
2023-04-25T07:12:44.621Z,2.70
2023-04-25T07:15:12.733Z,2.60
2023-04-25T07:17:40.775Z,2.50
2023-04-25T07:20:10.317Z,2.80
2023-04-25T07:22:38.222Z,2.97
2023-04-25T07:25:09.476Z,2.47
2023-04-25T07:27:37.454Z,2.50
2023-04-25T07:30:07.060Z,2.17
2023-04-25T07:32:34.936Z,2.47
2023-04-25T07:35:05.365Z,2.17
2023-04-25T07:37:33.269Z,2.10
2023-04-25T07:40:02.229Z,2.30
2023-04-25T07:42:31.541Z,2.07
2023-04-25T07:44:59.569Z,2.00
2023-04-25T07:47:27.542Z,2.00
2023-04-25T07:49:55.538Z,1.87
2023-04-25T07:52:23.501Z,2.03
2023-04-25T07:54:51.894Z,2.10
2023-04-25T07:57:20.544Z,2.70
2023-04-25T07:59:49.754Z,2.30
2023-04-25T08:02:18.015Z,2.23
2023-04-25T08:04:46.130Z,2.33
2023-04-25T08:07:14.261Z,2.43
2023-04-25T08:09:42.182Z,2.40
2023-04-25T08:12:10.090Z,2.00
2023-04-25T08:14:38.284Z,2.20
2023-04-25T08:17:07.989Z,3.13
2023-04-25T08:19:35.988Z,2.20
2023-04-25T08:22:03.959Z,2.10
2023-04-25T08:24:31.937Z,2.43
2023-04-25T08:27:00.088Z,2.20
2023-04-25T08:29:29.468Z,2.43
2023-04-25T08:31:57.747Z,2.33
2023-04-25T08:34:27.867Z,1.90
2023-04-25T08:36:55.918Z,2.00
2023-04-25T08:39:23.973Z,2.00
2023-04-25T08:41:53.648Z,1.90
2023-04-25T08:44:22.846Z,1.70
2023-04-25T08:46:54.453Z,1.90
2023-04-25T08:49:22.677Z,2.23
2023-04-25T08:51:54.403Z,2.43
2023-04-25T08:54:35.264Z,1.73
2023-04-25T08:57:05.265Z,1.80
2023-04-25T08:59:37.848Z,1.57
2023-04-25T09:02:07.101Z,2.00
2023-04-25T09:04:36.382Z,1.70
2023-04-25T09:07:06.063Z,1.90
2023-04-25T09:09:33.979Z,2.07
2023-04-25T09:12:02.832Z,2.20
2023-04-25T09:14:30.891Z,1.70
2023-04-25T09:17:04.564Z,1.70
2023-04-25T09:22:07.274Z,1.50
2023-04-25T09:24:37.018Z,2.10
2023-04-25T09:27:09.206Z,1.97
2023-04-25T09:29:38.882Z,2.20
2023-04-25T09:32:18.332Z,1.70
2023-04-25T09:34:50.499Z,1.87
2023-04-25T09:37:24.221Z,1.60
2023-04-25T09:39:54.969Z,1.70
2023-04-25T09:42:25.846Z,2.07
2023-04-25T09:44:54.989Z,1.50
2023-04-25T09:47:25.028Z,1.73
2023-04-25T09:49:53.861Z,1.90
2023-04-25T09:52:25.780Z,1.90
2023-04-25T09:54:54.741Z,1.97
2023-04-25T09:57:23.995Z,1.73
2023-04-25T09:59:53.878Z,2.10
2023-04-25T10:02:24.513Z,1.60
2023-04-25T10:04:55.524Z,1.63
2023-04-25T10:07:27.250Z,1.93
2023-04-25T10:10:03.086Z,2.03
2023-04-25T10:12:32.015Z,1.50
2023-04-25T10:15:01.388Z,1.90
2023-04-25T10:17:29.677Z,1.97
2023-04-25T10:19:58.651Z,1.93
2023-04-25T10:22:34.484Z,1.90
2023-04-25T10:25:04.935Z,2.00
2023-04-25T10:27:33.222Z,1.73
2023-04-25T10:30:06.239Z,1.63
2023-04-25T10:32:35.635Z,1.60
2023-04-25T10:35:13.788Z,1.70
2023-04-25T10:37:59.209Z,1.63
2023-04-25T10:40:27.594Z,1.50
2023-04-25T10:42:55.797Z,1.83
2023-04-25T10:45:24.256Z,1.87
2023-04-25T10:47:52.283Z,2.03
2023-04-25T10:50:20.252Z,1.43
2023-04-25T10:52:49.798Z,2.00
2023-04-25T10:55:17.745Z,1.70
2023-04-25T10:57:49.312Z,1.50
2023-04-25T11:00:19.449Z,1.77
2023-04-25T11:02:49.065Z,1.50
2023-04-25T11:05:27.948Z,1.80
2023-04-25T11:10:46.834Z,1.80
2023-04-25T11:13:15.498Z,1.50
2023-04-25T11:14:38.049Z,1.20
2023-04-25T11:15:43.404Z,2.00
2023-04-25T11:18:11.304Z,1.43
2023-04-25T11:20:39.294Z,1.63
2023-04-25T11:23:08.675Z,1.30
2023-04-25T11:25:38.548Z,1.47
2023-04-25T11:28:07.016Z,1.43
2023-04-25T11:30:36.066Z,1.20
2023-04-25T11:33:04.928Z,1.73
2023-04-25T11:35:34.674Z,1.57
2023-04-25T11:38:04.778Z,1.17
2023-04-25T11:40:34.063Z,1.73
2023-04-25T11:43:02.786Z,1.47
2023-04-25T11:45:31.664Z,1.33
2023-04-25T11:47:59.731Z,1.53
2023-04-25T11:50:30.702Z,2.00
2023-04-25T11:52:58.991Z,1.60
2023-04-25T11:55:27.413Z,1.80
2023-04-25T11:57:56.751Z,1.80
2023-04-25T12:00:26.172Z,1.83
2023-04-25T12:02:57.069Z,1.40
2023-04-25T12:05:32.569Z,1.20
2023-04-25T12:08:13.773Z,1.07
2023-04-25T12:10:43.924Z,1.30
2023-04-25T12:13:24.762Z,1.20
2023-04-25T12:15:53.041Z,1.20
2023-04-25T12:18:26.787Z,1.30
2023-04-25T12:20:55.065Z,0.93
2023-04-25T12:23:29.384Z,1.27
2023-04-25T12:25:58.720Z,1.10
2023-04-25T12:28:29.000Z,1.50
2023-04-25T12:30:58.838Z,1.47
2023-04-25T12:33:27.908Z,1.27
2023-04-25T12:35:56.131Z,1.47
2023-04-25T12:38:25.444Z,1.40
2023-04-25T12:40:53.537Z,1.43
2023-04-25T12:43:21.435Z,1.10
2023-04-25T12:45:52.104Z,1.90
2023-04-25T12:48:20.668Z,1.40
2023-04-25T12:50:50.940Z,1.30
2023-04-25T12:53:19.326Z,1.40
2023-04-25T12:55:48.096Z,1.30
2023-04-25T12:58:16.296Z,1.57
2023-04-25T13:00:44.339Z,1.27
2023-04-25T13:03:14.106Z,1.20
2023-04-25T13:05:42.593Z,2.07
2023-04-25T13:08:13.177Z,1.30
2023-04-25T13:10:41.134Z,1.37
2023-04-25T13:13:09.502Z,1.20
2023-04-25T13:15:37.579Z,0.87
2023-04-25T13:18:06.532Z,1.43
2023-04-25T13:20:36.231Z,1.50
2023-04-25T13:23:04.224Z,1.33
2023-04-25T13:25:32.216Z,1.40
2023-04-25T13:28:00.069Z,1.60
2023-04-25T13:30:28.142Z,1.27
2023-04-25T13:32:57.881Z,1.10
2023-04-25T13:35:26.388Z,1.20
2023-04-25T13:37:55.689Z,1.30
2023-04-25T13:40:25.467Z,1.30
2023-04-25T13:42:53.644Z,1.00
2023-04-25T13:45:22.334Z,0.97
2023-04-25T13:47:50.364Z,1.30
2023-04-25T13:50:19.121Z,1.13
2023-04-25T13:52:47.025Z,1.30
2023-04-25T13:55:16.299Z,1.00
2023-04-25T13:57:44.738Z,1.20
2023-04-25T14:00:14.247Z,1.30
2023-04-25T14:02:42.150Z,0.87
2023-04-25T14:05:10.821Z,0.90
2023-04-25T14:07:39.158Z,1.20
2023-04-25T14:10:07.914Z,0.90
2023-04-25T14:12:37.234Z,1.17
2023-04-25T14:15:05.971Z,0.93
2023-04-25T14:17:33.931Z,1.63
2023-04-25T14:20:01.835Z,1.30
2023-04-25T14:22:29.763Z,0.77
2023-04-25T14:24:57.683Z,1.30
2023-04-25T14:27:28.581Z,1.20
2023-04-25T14:29:58.405Z,0.97
2023-04-25T14:32:26.474Z,1.53
2023-04-25T14:34:54.445Z,1.10
2023-04-25T14:37:22.437Z,0.70
2023-04-25T14:39:50.463Z,1.00
2023-04-25T14:42:18.367Z,1.10
2023-04-25T14:44:46.516Z,0.80
2023-04-25T14:47:16.639Z,1.00
2023-04-25T14:49:44.524Z,0.93
2023-04-25T14:52:12.409Z,0.73
2023-04-25T14:54:40.366Z,0.70
2023-04-25T14:57:08.739Z,0.80
2023-04-25T14:59:36.677Z,1.10
2023-04-25T15:02:04.723Z,1.10
2023-04-25T15:04:34.770Z,1.00
2023-04-25T15:07:02.695Z,1.10
2023-04-25T15:09:30.723Z,1.20
2023-04-25T15:12:00.462Z,1.57
2023-04-25T15:14:28.482Z,1.20
2023-04-25T15:16:56.594Z,0.80
2023-04-25T15:19:24.656Z,1.37
2023-04-25T15:21:54.548Z,1.10
2023-04-25T15:24:23.015Z,1.30
2023-04-25T15:26:51.526Z,0.90
2023-04-25T15:29:20.108Z,1.27
2023-04-25T15:31:47.968Z,0.87
2023-04-25T15:34:15.973Z,1.37
2023-04-25T15:36:43.865Z,1.07
2023-04-25T15:39:13.131Z,1.43
2023-04-25T15:41:41.829Z,0.97
2023-04-25T15:44:10.868Z,1.20
2023-04-25T15:46:39.566Z,1.10
2023-04-25T15:49:07.562Z,1.07
2023-04-25T15:51:36.588Z,1.20
2023-04-25T15:54:04.803Z,1.20
2023-04-25T15:56:34.405Z,0.90
2023-04-25T15:59:02.304Z,0.97
2023-04-25T16:01:31.159Z,1.03
2023-04-25T16:03:59.928Z,1.13
2023-04-25T16:06:28.628Z,1.17
2023-04-25T16:08:57.004Z,1.53
2023-04-25T16:11:25.446Z,1.00
2023-04-25T16:13:54.710Z,1.17
2023-04-25T16:16:23.625Z,1.33
2023-04-25T16:18:51.732Z,1.20
2023-04-25T16:21:19.603Z,1.10
2023-04-25T16:23:47.550Z,1.10
2023-04-25T16:26:15.518Z,0.90
2023-04-25T16:28:43.417Z,0.97
2023-04-25T16:31:12.744Z,0.80
2023-04-25T16:33:40.622Z,1.10
2023-04-25T16:36:09.561Z,1.10
2023-04-25T16:38:39.722Z,1.17
2023-04-25T16:41:07.915Z,0.97
2023-04-25T16:43:36.331Z,1.40
2023-04-25T16:46:04.482Z,0.90
2023-04-25T16:48:34.899Z,1.13
2023-04-25T16:51:03.003Z,1.10
2023-04-25T16:53:31.247Z,1.30
2023-04-25T16:55:59.142Z,0.97
2023-04-25T16:58:28.866Z,1.27
2023-04-25T17:00:57.838Z,1.27
2023-04-25T17:03:26.085Z,1.00
2023-04-25T17:05:57.384Z,1.13
2023-04-25T17:08:25.504Z,1.20
2023-04-25T17:10:53.562Z,1.03
2023-04-25T17:13:21.446Z,1.10
2023-04-25T17:15:58.789Z,1.50
2023-04-25T17:18:28.191Z,1.37
2023-04-25T17:20:57.629Z,1.43
2023-04-25T17:23:25.785Z,1.37
2023-04-25T17:25:53.707Z,1.20
2023-04-25T17:28:21.621Z,1.40
2023-04-25T17:30:49.756Z,1.10
2023-04-25T17:33:17.672Z,0.97
2023-04-25T17:35:46.135Z,1.03
2023-04-25T17:38:15.320Z,1.20
2023-04-25T17:40:43.315Z,1.23
2023-04-25T17:43:11.289Z,1.10
2023-04-25T17:45:39.284Z,1.10
2023-04-25T17:48:07.384Z,0.70
2023-04-25T17:50:35.278Z,1.20
2023-04-25T17:53:03.855Z,1.43
2023-04-25T17:55:33.115Z,1.07
2023-04-25T17:58:01.022Z,1.20
2023-04-25T18:00:30.139Z,1.13
2023-04-25T18:02:58.150Z,1.20
2023-04-25T18:05:26.085Z,1.30
2023-04-25T18:07:54.277Z,1.53
2023-04-25T18:10:22.277Z,1.13
2023-04-25T18:12:51.632Z,1.00
2023-04-25T18:15:20.165Z,1.10
2023-04-25T18:17:48.069Z,1.00
2023-04-25T18:20:16.667Z,1.40
2023-04-25T18:22:45.568Z,1.13
2023-04-25T18:25:13.933Z,1.10
2023-04-25T18:27:43.371Z,1.40
2023-04-25T18:30:13.899Z,1.20
2023-04-25T18:32:42.226Z,1.40
2023-04-25T18:35:12.152Z,1.03
2023-04-25T18:37:42.027Z,1.40
2023-04-25T18:40:13.761Z,1.10
2023-04-25T18:42:41.848Z,1.20
2023-04-25T18:45:10.973Z,1.10
2023-04-25T18:47:40.393Z,1.50
2023-04-25T18:50:09.545Z,1.37
2023-04-25T18:52:37.839Z,1.33
2023-04-25T18:55:06.410Z,1.47
2023-04-25T18:57:34.427Z,1.17
2023-04-25T19:00:07.001Z,1.20
2023-04-25T19:02:36.705Z,1.00
2023-04-25T19:05:07.293Z,0.80
2023-04-25T19:07:35.247Z,1.20
2023-04-25T19:10:05.552Z,1.07
2023-04-25T19:12:34.471Z,1.33
2023-04-25T19:15:02.718Z,1.30
2023-04-25T19:17:30.850Z,1.33
2023-04-25T19:19:58.804Z,1.10
2023-04-25T19:22:28.123Z,1.43
2023-04-25T19:25:09.188Z,1.30
2023-04-25T19:27:38.075Z,0.97
2023-04-25T19:30:08.845Z,1.00
2023-04-25T19:32:36.859Z,1.40
2023-04-25T19:35:05.026Z,1.30
2023-04-25T19:37:34.291Z,1.50
2023-04-25T19:40:03.788Z,1.20
2023-04-25T19:42:31.720Z,1.40
2023-04-25T19:44:59.646Z,1.20
2023-04-25T19:47:28.270Z,1.23
2023-04-25T19:49:56.220Z,1.40
2023-04-25T19:52:24.359Z,1.37
2023-04-25T19:54:58.014Z,1.33
2023-04-25T19:57:27.750Z,1.50
2023-04-25T19:59:55.662Z,1.10
2023-04-25T20:02:23.842Z,1.37
2023-04-25T20:04:51.813Z,1.30
2023-04-25T20:07:21.916Z,1.40
2023-04-25T20:09:50.167Z,1.43
2023-04-25T20:12:19.428Z,1.57
2023-04-25T20:14:47.311Z,1.20
2023-04-25T20:17:15.380Z,1.40
2023-04-25T20:19:43.258Z,1.40
2023-04-25T20:22:11.247Z,1.40
2023-04-25T20:24:39.539Z,1.47
2023-04-25T20:27:07.683Z,1.40
2023-04-25T20:29:36.923Z,1.40
2023-04-25T20:32:05.243Z,1.80
2023-04-25T20:34:33.497Z,1.60
2023-04-25T20:37:02.822Z,1.13
2023-04-25T20:39:33.185Z,1.73
2023-04-25T20:42:01.439Z,1.20
2023-04-25T20:44:29.390Z,1.77
2023-04-25T20:46:58.612Z,1.37
2023-04-25T20:49:26.553Z,1.17
2023-04-25T20:51:54.418Z,1.60
2023-04-25T20:54:23.663Z,1.53
2023-04-25T20:56:52.405Z,1.30
2023-04-25T20:59:20.653Z,1.50
2023-04-25T21:01:48.854Z,1.73
2023-04-25T21:04:18.313Z,1.47
2023-04-25T21:06:46.515Z,1.40
2023-04-25T21:09:14.699Z,1.37
2023-04-25T21:11:42.743Z,2.23
2023-04-25T21:14:10.923Z,1.60
2023-04-25T21:16:39.095Z,1.87
2023-04-25T21:19:07.292Z,1.27
2023-04-25T21:21:36.578Z,1.80
2023-04-25T21:24:04.786Z,1.27
2023-04-25T21:26:32.681Z,1.17
2023-04-25T21:29:00.520Z,1.13
2023-04-25T21:31:28.472Z,1.43
2023-04-25T21:33:56.451Z,1.57
2023-04-25T21:36:24.417Z,1.37
2023-04-25T21:38:53.951Z,1.30
2023-04-25T21:41:22.545Z,1.50
2023-04-25T21:43:50.411Z,1.40
2023-04-25T21:46:23.520Z,1.10
2023-04-25T21:48:52.310Z,1.20
2023-04-25T21:51:20.449Z,1.90
2023-04-25T21:53:48.291Z,1.23
2023-04-25T21:56:17.558Z,1.50
2023-04-25T21:58:46.225Z,1.90
2023-04-25T22:01:15.757Z,1.30
2023-04-25T22:03:43.886Z,1.57
2023-04-25T22:06:11.856Z,1.40
2023-04-25T22:08:39.674Z,1.30
2023-04-25T22:11:08.391Z,1.43
2023-04-25T22:13:37.655Z,1.50
2023-04-25T22:16:06.122Z,1.40
2023-04-25T22:18:34.095Z,1.20
2023-04-25T22:21:02.343Z,1.30
2023-04-25T22:23:30.466Z,2.00
2023-04-25T22:25:58.342Z,1.30
2023-04-25T22:28:26.784Z,1.30
2023-04-25T22:30:56.012Z,1.50
2023-04-25T22:33:24.019Z,1.63
2023-04-25T22:35:52.045Z,1.67
2023-04-25T22:38:19.959Z,1.50
2023-04-25T22:40:48.354Z,1.50
2023-04-25T22:43:16.273Z,1.10
2023-04-25T22:45:44.190Z,1.23
2023-04-25T22:48:13.610Z,1.10
2023-04-25T22:50:41.516Z,1.63
2023-04-25T22:53:12.195Z,1.50
2023-04-25T22:55:40.178Z,1.37
2023-04-25T22:58:09.279Z,1.50
2023-04-25T23:00:37.537Z,1.23
2023-04-25T23:03:06.291Z,1.53
2023-04-25T23:05:35.637Z,1.30
2023-04-25T23:08:03.572Z,1.30
2023-04-25T23:10:31.799Z,1.70
2023-04-25T23:13:00.890Z,1.57
2023-04-25T23:15:31.492Z,1.60
2023-04-25T23:17:59.523Z,1.60
2023-04-25T23:20:27.628Z,1.43
2023-04-25T23:22:57.089Z,1.23
2023-04-25T23:25:26.627Z,1.43
2023-04-25T23:27:54.799Z,1.60
2023-04-25T23:30:23.057Z,1.73
2023-04-25T23:32:51.302Z,1.30
2023-04-25T23:35:19.317Z,1.10
2023-04-25T23:37:48.995Z,1.17
2023-04-25T23:40:18.605Z,1.50
2023-04-25T23:42:46.786Z,1.60
2023-04-25T23:45:18.764Z,1.40
2023-04-25T23:47:46.854Z,1.43
2023-04-25T23:50:14.786Z,1.53
2023-04-25T23:52:42.663Z,1.30
2023-04-25T23:55:10.927Z,1.87
2023-04-25T23:57:40.165Z,1.70
